Time;durP1;ratioP1;P1;durP2;ratioP2;P2;SDS_P1;SDS_P2;PMS_P1;PMS_P2;Temp;Humidity;BMP_temperature;BMP_pressure;BME280_temperature;BME280_humidity;BME280_pressure;Samples;Min_cycle;Max_cycle;Signal;HPM_P1;HPM_P2
2022/05/22 00:01:11;;;;;;;;;;;;;;;-142.75;100.00;77633.41;5030516;28;19913;-69
2022/05/22 00:03:36;;;;;;;;;;;;;;;-142.75;100.00;77637.34;5030851;28;19913;-70
2022/05/22 00:06:01;;;;;;;;;;;;;;;-142.75;100.00;77645.22;5030846;28;20016;-70
2022/05/22 00:08:27;;;;;;;;;;;;;;;-142.75;100.00;77655.06;5030326;28;20326;-69
2022/05/22 00:10:52;;;;;;;;;;;;;;;-142.75;100.00;77657.03;5029211;28;19913;-69
2022/05/22 00:13:17;;;;;;;;;;;;;;;-142.75;100.00;77670.81;5030916;28;19917;-69
2022/05/22 00:16:36;;;;;;;;;;;;;;;-142.75;100.00;77676.72;5029675;28;19917;-69
2022/05/22 00:18:27;;;;;;;;;;;;;;;-142.75;100.00;77686.56;5029654;28;19928;-69
2022/05/22 00:20:52;;;;;;;;;;;;;;;-142.75;100.00;77700.34;5030250;28;19917;-69
2022/05/22 00:23:17;;;;;;;;;;;;;;;-142.75;100.00;77708.22;5030443;28;19981;-69
2022/05/22 00:25:43;;;;;;;;;;;;;;;-142.75;100.00;77716.09;5030525;28;19913;-69
2022/05/22 00:28:08;;;;;;;;;;;;;;;-142.75;100.00;77718.06;5030310;28;19913;-69
2022/05/22 00:30:33;;;;;;;;;;;;;;;-142.75;100.00;77727.94;5030186;28;19970;-70
2022/05/22 00:33:00;;;;;;;;;;;;;;;-142.75;100.00;77747.63;5030313;28;19913;-69
2022/05/22 00:35:26;;;;;;;;;;;;;;;-142.75;100.00;77745.66;5029066;28;19917;-70
2022/05/22 00:37:51;;;;;;;;;;;;;;;-142.75;100.00;77739.75;5030204;28;19921;-69
2022/05/22 00:40:16;;;;;;;;;;;;;;;-142.75;100.00;77741.72;5029914;28;19920;-69
2022/05/22 00:42:45;;;;;;;;;;;;;;;-142.75;100.00;77743.69;5035177;28;19912;-69
2022/05/22 00:45:11;;;;;;;;;;;;;;;-142.75;100.00;77751.56;5050373;28;19912;-70
2022/05/22 00:47:36;;;;;;;;;;;;;;;-142.75;100.00;77741.72;5049968;28;19919;-70
2022/05/22 00:50:01;;;;;;;;;;;;;;;-142.75;100.00;77747.63;5049650;28;20391;-69
2022/05/22 00:52:33;;;;;;;;;;;;;;;-142.75;100.00;77749.59;5049481;28;19913;-69
2022/05/22 00:55:25;;;;;;;;;;;;;;;-142.75;100.00;77739.75;5049789;28;19946;-69
2022/05/22 00:57:52;;;;;;;;;;;;;;;-142.75;100.00;77735.81;5046482;28;19954;-69
2022/05/22 01:00:21;;;;;;;;;;;;;;;-142.75;100.00;77722.00;5048558;28;19917;-69
2022/05/22 01:05:31;;;;;;;;;;;;;;;-142.75;100.00;77680.66;5036174;28;20023;-70
2022/05/22 01:07:59;;;;;;;;;;;;;;;-142.75;100.00;77668.84;5049330;28;20385;-69
2022/05/22 01:10:32;;;;;;;;;;;;;;;-142.75;100.00;77672.78;5049713;28;20370;-70
2022/05/22 01:12:59;;;;;;;;;;;;;;;-142.75;100.00;77684.59;5049706;28;19912;-69
2022/05/22 01:15:24;;;;;;;;;;;;;;;-142.75;100.00;77692.47;5050140;28;19986;-70
2022/05/22 01:17:49;;;;;;;;;;;;;;;-142.75;100.00;77700.34;5049211;28;19917;-69
2022/05/22 01:20:15;;;;;;;;;;;;;;;-142.75;100.00;77692.47;5049372;28;20370;-70
2022/05/22 01:22:40;;;;;;;;;;;;;;;-142.75;100.00;77696.41;5041725;28;19920;-69
2022/05/22 01:25:06;;;;;;;;;;;;;;;-142.75;100.00;77702.31;5029736;28;19963;-70
2022/05/22 01:27:31;;;;;;;;;;;;;;;-142.75;100.00;77710.19;5047687;28;19963;-70
2022/05/22 01:30:12;;;;;;;;;;;;;;;-142.75;100.00;77698.38;5026845;28;20327;-70
2022/05/22 01:32:38;;;;;;;;;;;;;;;-142.75;100.00;77700.34;5033562;28;19917;-70
2022/05/22 01:35:04;;;;;;;;;;;;;;;-142.75;100.00;77702.31;5033449;28;19928;-69
2022/05/22 01:37:29;;;;;;;;;;;;;;;-142.75;100.00;77696.41;5033528;28;19912;-69
2022/05/22 01:39:54;;;;;;;;;;;;;;;-142.75;100.00;77690.50;5033250;28;19913;-70
2022/05/22 01:42:19;;;;;;;;;;;;;;;-142.75;100.00;77700.34;5030544;28;19920;-70
2022/05/22 01:44:45;;;;;;;;;;;;;;;-142.75;100.00;77700.34;5032732;28;19917;-70
2022/05/22 01:47:10;;;;;;;;;;;;;;;-142.75;100.00;77696.41;5033381;28;20375;-69
2022/05/22 01:49:35;;;;;;;;;;;;;;;-142.75;100.00;77684.59;5033214;28;20278;-69
2022/05/22 01:52:00;;;;;;;;;;;;;;;-142.75;100.00;77682.63;5033060;28;20310;-69
2022/05/22 01:54:26;;;;;;;;;;;;;;;-142.75;100.00;77666.88;5032956;28;19917;-70
2022/05/22 01:56:51;;;;;;;;;;;;;;;-142.75;100.00;77653.09;5036477;28;19916;-69
2022/05/22 01:59:16;;;;;;;;;;;;;;;-142.75;100.00;77659.00;5051326;28;20334;-69
2022/05/22 02:01:41;;;;;;;;;;;;;;;-142.75;100.00;77668.84;5046538;28;19913;-70
2022/05/22 02:04:06;;;;;;;;;;;;;;;-142.75;100.00;77662.94;5032986;28;19920;-69
2022/05/22 02:06:32;;;;;;;;;;;;;;;-142.75;100.00;77666.88;5031712;28;19925;-70
2022/05/22 02:08:57;;;;;;;;;;;;;;;-142.75;100.00;77682.63;5032662;28;19913;-69
2022/05/22 02:11:22;;;;;;;;;;;;;;;-142.75;100.00;77698.38;5032862;28;19948;-70
2022/05/22 02:13:48;;;;;;;;;;;;;;;-142.75;100.00;77704.28;5032846;28;20353;-69
2022/05/22 02:16:14;;;;;;;;;;;;;;;-142.75;100.00;77708.22;5033301;28;20446;-69
2022/05/22 02:18:39;;;;;;;;;;;;;;;-142.75;100.00;77718.06;5032489;28;19912;-69
2022/05/22 02:21:04;;;;;;;;;;;;;;;-142.75;100.00;77723.97;5031244;28;19932;-70
2022/05/22 02:23:31;;;;;;;;;;;;;;;-142.75;100.00;77718.06;5032563;28;19913;-69
2022/05/22 02:25:56;;;;;;;;;;;;;;;-142.75;100.00;77710.19;5032797;28;19912;-69
2022/05/22 02:28:23;;;;;;;;;;;;;;;-142.75;100.00;77700.34;5032171;28;20290;-69
2022/05/22 02:30:50;;;;;;;;;;;;;;;-142.75;100.00;77692.47;5032509;28;20023;-70
2022/05/22 02:33:15;;;;;;;;;;;;;;;-142.75;100.00;77676.72;5032516;28;19905;-69
2022/05/22 02:35:40;;;;;;;;;;;;;;;-142.75;100.00;77662.94;5032390;28;19916;-69
2022/05/22 02:38:06;;;;;;;;;;;;;;;-142.75;100.00;77651.13;5032095;28;20398;-69
2022/05/22 02:40:31;;;;;;;;;;;;;;;-142.75;100.00;77660.97;5032296;28;19992;-69
2022/05/22 02:42:57;;;;;;;;;;;;;;;-142.75;100.00;77664.91;5031689;28;20275;-69
2022/05/22 02:45:24;;;;;;;;;;;;;;;-142.75;100.00;77670.81;5033053;28;19920;-69
2022/05/22 02:47:49;;;;;;;;;;;;;;;-142.75;100.00;77688.53;5031992;28;20317;-69
2022/05/22 02:50:16;;;;;;;;;;;;;;;-142.75;100.00;77700.34;5032087;28;19967;-69
2022/05/22 02:52:41;;;;;;;;;;;;;;;-142.75;100.00;77712.16;5032334;28;19913;-69
2022/05/22 02:55:07;;;;;;;;;;;;;;;-142.75;100.00;77723.97;5032089;28;20000;-69
2022/05/22 02:57:36;;;;;;;;;;;;;;;-142.75;100.00;77727.94;5031725;28;19919;-69
2022/05/22 03:00:01;;;;;;;;;;;;;;;-142.75;100.00;77708.22;5032044;28;19913;-69
2022/05/22 03:02:26;;;;;;;;;;;;;;;-142.75;100.00;77710.19;5031803;28;20440;-70
2022/05/22 03:04:52;;;;;;;;;;;;;;;-142.75;100.00;77722.00;5031936;28;19920;-69
2022/05/22 03:07:18;;;;;;;;;;;;;;;-142.75;100.00;77727.94;5031747;28;20015;-69
2022/05/22 03:09:44;;;;;;;;;;;;;;;-142.75;100.00;77731.88;5031567;28;19913;-69
2022/05/22 03:12:11;;;;;;;;;;;;;;;-142.75;100.00;77723.97;5031554;28;19913;-69
2022/05/22 03:14:36;;;;;;;;;;;;;;;-142.75;100.00;77716.09;5032258;28;19917;-70
2022/05/22 03:17:01;;;;;;;;;;;;;;;-142.75;100.00;77700.34;5032101;28;19913;-69
2022/05/22 03:19:26;;;;;;;;;;;;;;;-142.75;100.00;77692.47;5029959;28;19913;-69
2022/05/22 03:21:52;;;;;;;;;;;;;;;-142.75;100.00;77678.69;5031337;28;19958;-69
2022/05/22 03:24:18;;;;;;;;;;;;;;;-142.75;100.00;77688.53;5030280;28;19935;-69
2022/05/22 03:26:43;;;;;;;;;;;;;;;-142.75;100.00;77704.28;5031480;28;20299;-69
2022/05/22 03:29:08;;;;;;;;;;;;;;;-142.75;100.00;77718.06;5031010;28;19996;-69
2022/05/22 03:31:33;;;;;;;;;;;;;;;-142.75;100.00;77708.22;5031407;28;19920;-69
2022/05/22 03:33:58;;;;;;;;;;;;;;;-142.75;100.00;77696.41;5031323;28;19916;-70
2022/05/22 03:36:24;;;;;;;;;;;;;;;-142.75;100.00;77700.34;5031249;28;19966;-69
2022/05/22 03:38:49;;;;;;;;;;;;;;;-142.75;100.00;77678.69;5030822;28;20367;-70
2022/05/22 03:41:14;;;;;;;;;;;;;;;-142.75;100.00;77666.88;5031093;28;19913;-69
2022/05/22 03:43:40;;;;;;;;;;;;;;;-142.75;100.00;77660.97;5030065;28;19963;-69
2022/05/22 03:46:05;;;;;;;;;;;;;;;-142.75;100.00;77660.97;5031649;28;20297;-70
2022/05/22 03:48:30;;;;;;;;;;;;;;;-142.75;100.00;77655.06;5030808;28;19916;-70
2022/05/22 03:50:55;;;;;;;;;;;;;;;-142.75;100.00;77651.13;5030838;28;19956;-69
2022/05/22 03:53:20;;;;;;;;;;;;;;;-142.75;100.00;77645.22;5030275;28;19921;-69
2022/05/22 03:55:47;;;;;;;;;;;;;;;-142.75;100.00;77647.19;5030826;28;19924;-69
2022/05/22 03:58:12;;;;;;;;;;;;;;;-142.75;100.00;77659.00;5030393;28;19921;-69
2022/05/22 04:00:38;;;;;;;;;;;;;;;-142.75;100.00;77655.06;5031152;28;19913;-70
2022/05/22 04:03:03;;;;;;;;;;;;;;;-142.75;100.00;77637.34;5030756;28;19916;-69
2022/05/22 04:05:28;;;;;;;;;;;;;;;-142.75;100.00;77629.47;5029432;28;19920;-69
2022/05/22 04:07:53;;;;;;;;;;;;;;;-142.75;100.00;77621.59;5030544;28;19928;-68
2022/05/22 04:10:19;;;;;;;;;;;;;;;-142.75;100.00;77613.72;5029101;28;19913;-69
2022/05/22 04:12:44;;;;;;;;;;;;;;;-142.75;100.00;77605.84;5030578;28;19979;-69
2022/05/22 04:15:11;;;;;;;;;;;;;;;-142.75;100.00;77607.81;5031223;28;19963;-69
2022/05/22 04:17:36;;;;;;;;;;;;;;;-142.75;100.00;77613.72;5030549;28;20386;-69
2022/05/22 04:20:01;;;;;;;;;;;;;;;-142.75;100.00;77621.59;5028931;28;19920;-69
2022/05/22 04:22:26;;;;;;;;;;;;;;;-142.75;100.00;77621.59;5030341;28;20380;-69
2022/05/22 04:27:39;;;;;;;;;;;;;;;-142.75;100.00;77623.56;5045481;28;19919;-69
2022/05/22 04:30:05;;;;;;;;;;;;;;;-142.75;100.00;77629.47;5049958;28;20331;-69
2022/05/22 04:32:31;;;;;;;;;;;;;;;-142.75;100.00;77637.34;5050226;28;19932;-69
2022/05/22 04:34:56;;;;;;;;;;;;;;;-142.75;100.00;77643.25;5048655;28;19917;-69
2022/05/22 04:37:21;;;;;;;;;;;;;;;-142.75;100.00;77633.41;5049841;28;19916;-69
2022/05/22 04:39:46;;;;;;;;;;;;;;;-142.75;100.00;77633.41;5049589;28;20572;-69
2022/05/22 04:42:11;;;;;;;;;;;;;;;-142.75;100.00;77631.44;5049952;28;19939;-69
2022/05/22 04:44:37;;;;;;;;;;;;;;;-142.75;100.00;77615.69;5050262;28;20275;-69
2022/05/22 04:47:02;;;;;;;;;;;;;;;-142.75;100.00;77613.72;5050265;28;19920;-69
2022/05/22 04:49:27;;;;;;;;;;;;;;;-142.75;100.00;77613.72;5049536;28;19916;-69
2022/05/22 04:51:52;;;;;;;;;;;;;;;-142.75;100.00;77594.03;5049401;28;19912;-69
2022/05/22 04:54:18;;;;;;;;;;;;;;;-142.75;100.00;77580.25;5048058;28;19916;-69
2022/05/22 04:56:43;;;;;;;;;;;;;;;-142.75;100.00;77568.44;5049474;28;19970;-69
2022/05/22 04:59:08;;;;;;;;;;;;;;;-142.75;100.00;77552.69;5049309;28;19919;-69
2022/05/22 05:01:33;;;;;;;;;;;;;;;-142.75;100.00;77542.84;5047850;28;20556;-69
2022/05/22 05:03:58;;;;;;;;;;;;;;;-142.75;100.00;77527.09;5048915;28;20003;-69
2022/05/22 05:06:23;;;;;;;;;;;;;;;-142.75;100.00;77521.19;5048089;28;19920;-69
2022/05/22 05:08:49;;;;;;;;;;;;;;;-142.75;100.00;77517.25;5048588;28;20385;-69
2022/05/22 05:11:14;;;;;;;;;;;;;;;-142.75;100.00;77503.47;5049087;28;19959;-70
2022/05/22 05:13:40;;;;;;;;;;;;;;;-142.75;100.00;77497.56;5049011;28;20370;-69
2022/05/22 05:16:05;;;;;;;;;;;;;;;-142.75;100.00;77489.69;5048248;28;19917;-69
2022/05/22 05:18:30;;;;;;;;;;;;;;;-142.75;100.00;77497.56;5048873;28;19919;-69
2022/05/22 05:20:59;;;;;;;;;;;;;;;-142.75;100.00;77481.81;5048401;28;20473;-69
2022/05/22 05:23:24;;;;;;;;;;;;;;;-142.75;100.00;77470.00;5055673;22;20398;-68
2022/05/22 05:25:49;;;;;;;;;;;;;;;-142.75;100.00;77456.22;5045354;28;19927;-68
2022/05/22 05:28:14;;;;;;;;;;;;;;;-142.75;100.00;77452.25;5047574;28;20007;-70
2022/05/22 05:30:39;;;;;;;;;;;;;;;-142.75;100.00;77428.63;5048166;28;19919;-70
2022/05/22 05:33:05;;;;;;;;;;;;;;;-142.75;100.00;77414.84;5048523;28;19912;-70
2022/05/22 05:35:31;;;;;;;;;;;;;;;-142.75;100.00;77399.09;5047266;28;19923;-70
2022/05/22 05:37:56;;;;;;;;;;;;;;;-142.75;100.00;77391.22;5048477;28;19913;-70
2022/05/22 05:40:21;;;;;;;;;;;;;;;-142.75;100.00;77379.41;5048295;28;19927;-70
2022/05/22 05:42:48;;;;;;;;;;;;;;;-142.75;100.00;77363.66;5048384;28;20004;-70
2022/05/22 05:45:14;;;;;;;;;;;;;;;-142.75;100.00;77349.88;5047643;28;19912;-71
2022/05/22 05:47:39;;;;;;;;;;;;;;;-142.75;100.00;77347.91;5049334;28;20405;-70
2022/05/22 05:50:05;;;;;;;;;;;;;;;-142.75;100.00;77326.25;5047662;28;19913;-70
2022/05/22 05:52:30;;;;;;;;;;;;;;;-142.75;100.00;77316.41;5049011;28;19920;-68
2022/05/22 05:54:56;;;;;;;;;;;;;;;-142.75;100.00;77314.44;5048900;28;20286;-70
2022/05/22 05:57:21;;;;;;;;;;;;;;;-142.75;100.00;77302.63;5047916;28;19917;-69
2022/05/22 05:59:46;;;;;;;;;;;;;;;-142.75;100.00;77284.91;5048797;28;19917;-70
2022/05/22 06:02:12;;;;;;;;;;;;;;;-142.75;100.00;77280.97;5049177;28;19974;-70
2022/05/22 06:04:39;;;;;;;;;;;;;;;-142.75;100.00;77284.91;5047787;28;20375;-70
2022/05/22 06:07:04;;;;;;;;;;;;;;;-142.75;100.00;77275.06;5047830;28;19999;-70
2022/05/22 06:09:29;;;;;;;;;;;;;;;-142.75;100.00;77263.25;5048722;28;20000;-70
2022/05/22 06:11:55;;;;;;;;;;;;;;;-142.75;100.00;77253.41;5048874;28;19917;-70
2022/05/22 06:14:20;;;;;;;;;;;;;;;-142.75;100.00;77235.69;5047797;28;19962;-69
2022/05/22 06:16:45;;;;;;;;;;;;;;;-142.75;100.00;77208.13;5049386;28;19913;-71
2022/05/22 06:19:10;;;;;;;;;;;;;;;-142.75;100.00;77176.63;5051081;28;19975;-70
2022/05/22 06:21:35;;;;;;;;;;;;;;;-142.75;100.00;77164.81;5051259;28;19921;-69
2022/05/22 06:24:00;;;;;;;;;;;;;;;-142.75;100.00;77143.16;5052155;28;20019;-68
2022/05/22 06:26:26;;;;;;;;;;;;;;;-142.75;100.00;77125.44;5052367;28;19974;-70
2022/05/22 06:28:51;;;;;;;;;;;;;;;-142.75;100.00;77115.59;5052027;28;20003;-70
2022/05/22 06:31:17;;;;;;;;;;;;;;;-142.75;100.00;77105.75;5052360;28;19921;-71
2022/05/22 06:33:42;;;;;;;;;;;;;;;-142.75;100.00;77082.13;5052103;28;19913;-70
2022/05/22 06:36:12;;;;;;;;;;;;;;;-142.75;100.00;77072.28;5051875;28;19917;-70
2022/05/22 06:41:21;;;;;;;;;;;;;;;-142.75;100.00;77078.19;5052457;28;19919;-68
2022/05/22 06:43:49;;;;;;;;;;;;;;;-142.75;100.00;77076.22;5051980;28;19912;-70
2022/05/22 06:46:15;;;;;;;;;;;;;;;-142.75;100.00;77062.44;5052723;28;19923;-68
2022/05/22 06:48:40;;;;;;;;;;;;;;;-142.75;100.00;77058.50;5051683;28;20286;-70
2022/05/22 06:51:06;;;;;;;;;;;;;;;-142.75;100.00;77038.81;5051445;28;19920;-68
2022/05/22 06:53:32;;;;;;;;;;;;;;;-142.75;100.00;77019.13;5051643;28;19919;-70
2022/05/22 06:55:57;;;;;;;;;;;;;;;-142.75;100.00;77007.31;5052075;28;19916;-70
2022/05/22 06:58:22;;;;;;;;;;;;;;;-142.75;100.00;76997.47;5050281;28;19927;-70
2022/05/22 07:00:53;;;;;;;;;;;;;;;-142.75;100.00;76985.66;5049751;28;20007;-69
2022/05/22 07:03:19;;;;;;;;;;;;;;;-142.75;100.00;76965.97;5051701;28;19959;-70
2022/05/22 07:05:44;;;;;;;;;;;;;;;-142.75;100.00;76973.84;5051536;28;19913;-68
2022/05/22 07:08:09;;;;;;;;;;;;;;;-142.75;100.00;76975.81;5050208;28;19927;-70
2022/05/22 07:13:18;;;;;;;;;;;;;;;-142.75;100.00;76932.50;5052771;28;19920;-70
2022/05/22 07:15:44;;;;;;;;;;;;;;;-142.75;100.00;76887.22;5051186;28;20316;-71
2022/05/22 07:18:09;;;;;;;;;;;;;;;-142.75;100.00;76857.69;5051892;28;19913;-70
2022/05/22 07:20:34;;;;;;;;;;;;;;;-142.75;100.00;76822.25;5052146;28;19920;-71
2022/05/22 07:22:59;;;;;;;;;;;;;;;-142.75;100.00;76790.78;5052341;28;20540;-69
2022/05/22 07:25:26;;;;;;;;;;;;;;;-142.75;100.00;76769.13;5052089;28;19999;-70
2022/05/22 07:27:51;;;;;;;;;;;;;;;-142.75;100.00;76763.22;5048750;28;19925;-69
2022/05/22 07:30:16;;;;;;;;;;;;;;;-142.75;100.00;76745.50;5040409;28;19990;-69
2022/05/22 07:32:42;;;;;;;;;;;;;;;-142.75;100.00;76731.72;5037287;28;19956;-70
2022/05/22 07:35:08;;;;;;;;;;;;;;;-142.75;100.00;76715.97;5033174;28;19924;-69
2022/05/22 07:37:33;;;;;;;;;;;;;;;-142.75;100.00;76704.16;5034166;28;19913;-70
2022/05/22 07:39:58;;;;;;;;;;;;;;;-142.75;100.00;76668.72;5030564;28;19913;-70
2022/05/22 07:42:23;;;;;;;;;;;;;;;-142.75;100.00;76635.25;5041555;28;19921;-70
2022/05/22 07:44:49;;;;;;;;;;;;;;;-142.75;100.00;76609.66;5051893;28;19913;-70
2022/05/22 07:47:14;;;;;;;;;;;;;;;-142.75;100.00;76607.69;5052085;28;19920;-70
2022/05/22 07:52:24;;;;;;;;;;;;;;;-142.75;100.00;76527.00;5038807;28;20038;-69
2022/05/22 07:54:49;;;;;;;;;;;;;;;-142.75;100.00;76511.25;5030456;28;20021;-70
2022/05/22 07:57:14;;;;;;;;;;;;;;;-142.75;100.00;76499.44;5031548;28;19943;-70
2022/05/22 07:59:40;;;;;;;;;;;;;;;-142.75;100.00;76485.66;5030939;28;19917;-69
2022/05/22 08:02:06;;;;;;;;;;;;;;;-142.75;100.00;76464.00;5037722;28;19916;-69
2022/05/22 08:04:31;;;;;;;;;;;;;;;-142.75;100.00;76462.03;5037869;28;19975;-69
2022/05/22 08:06:56;;;;;;;;;;;;;;;-142.75;100.00;76440.38;5035044;28;20378;-69
2022/05/22 08:09:22;;;;;;;;;;;;;;;-142.75;100.00;76412.81;5033171;28;19979;-69
2022/05/22 08:11:47;;;;;;;;;;;;;;;-142.75;100.00;76379.34;5030292;28;19913;-69
2022/05/22 08:14:15;;;;;;;;;;;;;;;-142.75;100.00;76361.63;5032823;28;20336;-68
2022/05/22 08:16:40;;;;;;;;;;;;;;;-142.75;100.00;76351.81;5030603;28;20057;-68
2022/05/22 08:19:05;;;;;;;;;;;;;;;-142.75;100.00;76322.28;5035751;28;19959;-69
2022/05/22 08:21:31;;;;;;;;;;;;;;;-142.75;100.00;76296.69;5036260;28;20014;-69
2022/05/22 08:23:56;;;;;;;;;;;;;;;-142.75;100.00;76278.97;5041668;28;19921;-69
2022/05/22 08:26:22;;;;;;;;;;;;;;;-142.75;100.00;76273.06;5035131;28;20287;-68
2022/05/22 08:28:47;;;;;;;;;;;;;;;-142.75;100.00;76275.03;5031098;28;19921;-69
2022/05/22 08:31:14;;;;;;;;;;;;;;;-142.75;100.00;76255.34;5036373;28;19920;-70
2022/05/22 08:33:39;;;;;;;;;;;;;;;-142.75;100.00;76239.59;5033359;28;19971;-69
2022/05/22 08:36:04;;;;;;;;;;;;;;;-142.75;100.00;76204.16;5029884;28;20297;-68
2022/05/22 08:38:29;;;;;;;;;;;;;;;-142.75;100.00;76225.81;5029913;28;19913;-69
2022/05/22 08:41:09;;;;;;;;;;;;;;;-142.75;100.00;76214.00;5030456;28;19920;-69
2022/05/22 08:43:38;;;;;;;;;;;;;;;-142.75;100.00;76208.09;5030378;28;19919;-69
2022/05/22 08:46:11;;;;;;;;;;;;;;;-142.75;100.00;76188.44;5031443;28;19920;-70
2022/05/22 08:48:44;;;;;;;;;;;;;;;-142.75;100.00;76182.53;5030742;28;19976;-70
2022/05/22 08:51:13;;;;;;;;;;;;;;;-142.75;100.00;76212.03;5030601;28;20386;-70
2022/05/22 08:53:43;;;;;;;;;;;;;;;-142.75;100.00;76202.19;5029454;28;20165;-69
2022/05/22 08:59:05;;;;;;;;;;;;;;;-142.75;100.00;76188.44;5030689;28;19924;-69
2022/05/22 09:01:50;;;;;;;;;;;;;;;-142.75;100.00;76178.59;5029342;28;19913;-69
2022/05/22 09:04:25;;;;;;;;;;;;;;;-142.75;100.00;76172.69;5030395;28;20056;-69
2022/05/22 09:06:53;;;;;;;;;;;;;;;-142.75;100.00;76198.28;5029299;28;19917;-70
2022/05/22 09:09:18;;;;;;;;;;;;;;;-142.75;100.00;76225.81;5030427;28;19919;-69
2022/05/22 09:11:52;;;;;;;;;;;;;;;-142.75;100.00;76196.31;5028943;28;20445;-68
2022/05/22 09:14:18;;;;;;;;;;;;;;;-142.75;100.00;76172.69;5032210;28;19921;-68
2022/05/22 09:16:44;;;;;;;;;;;;;;;-142.75;100.00;76168.75;5049857;28;19998;-68
2022/05/22 09:19:11;;;;;;;;;;;;;;;-142.75;100.00;76151.03;5048905;28;20741;-68
2022/05/22 09:21:46;;;;;;;;;;;;;;;-142.75;100.00;76149.06;5049456;28;19917;-69
2022/05/22 09:24:23;;;;;;;;;;;;;;;-142.75;100.00;76198.28;5049574;28;19913;-69
2022/05/22 09:26:57;;;;;;;;;;;;;;;-142.75;100.00;76168.75;5047639;28;19970;-70
2022/05/22 09:29:22;;;;;;;;;;;;;;;-142.75;98.36;76192.38;5048266;28;19917;-70
2022/05/22 09:31:47;;;;;;;;;;;;;;;-142.75;100.00;76166.78;5049336;28;19912;-68
2022/05/22 09:34:22;;;;;;;;;;;;;;;-142.75;96.41;76156.94;5049210;28;19924;-69
2022/05/22 09:36:47;;;;;;;;;;;;;;;-142.75;99.05;76164.81;5049300;28;19921;-69
2022/05/22 09:39:15;;;;;;;;;;;;;;;-142.75;96.73;76184.50;5047427;28;20331;-68
2022/05/22 09:41:56;;;;;;;;;;;;;;;-142.75;96.18;76182.53;5048978;28;19922;-71
2022/05/22 09:44:33;;;;;;;;;;;;;;;-142.75;98.41;76184.50;5048048;28;19916;-68
2022/05/22 09:47:01;;;;;;;;;;;;;;;-142.75;87.32;76208.09;5048711;28;20382;-68
2022/05/22 09:49:39;;;;;;;;;;;;;;;-142.75;92.59;76192.38;5030046;28;19986;-69
2022/05/22 09:52:07;;;;;;;;;;;;;;;-142.75;95.26;76166.78;5035515;28;20004;-71
2022/05/22 09:54:55;;;;;;;;;;;;;;;-142.75;94.81;76137.25;5053705;28;19921;-69
2022/05/22 09:57:50;;;;;;;;;;;;;;;-142.75;85.50;76111.66;5024980;28;19913;-68
2022/05/22 10:00:19;;;;;;;;;;;;;;;-142.75;83.39;76097.88;5040645;28;20333;-69
2022/05/22 10:03:01;;;;;;;;;;;;;;;-142.75;80.17;76086.06;5053595;28;20399;-70
2022/05/22 10:05:26;;;;;;;;;;;;;;;-142.75;76.33;76066.41;5053892;28;19948;-67
2022/05/22 10:08:06;;;;;;;;;;;;;;;-142.75;77.21;76054.59;5053453;28;20373;-68
2022/05/22 10:10:37;;;;;;;;;;;;;;;-142.75;71.59;76042.78;5053487;28;20298;-70
2022/05/22 10:13:25;;;;;;;;;;;;;;;-142.75;80.87;76021.13;5053367;28;19924;-70
2022/05/22 10:16:03;;;;;;;;;;;;;;;-142.75;73.89;75989.63;5044990;28;20027;-70
2022/05/22 10:18:37;;;;;;;;;;;;;;;-142.75;68.29;75981.75;5033098;28;19948;-70
2022/05/22 10:21:11;;;;;;;;;;;;;;;-142.75;68.97;76040.81;5033225;28;19956;-69
2022/05/22 10:23:42;;;;;;;;;;;;;;;-142.75;68.20;75995.53;5033088;28;19960;-70
2022/05/22 10:26:07;;;;;;;;;;;;;;;-142.75;74.28;76029.00;5034844;28;19929;-66
2022/05/22 10:28:35;;;;;;;;;;;;;;;-142.75;72.39;76042.78;5048999;28;19939;-69
2022/05/22 10:31:05;;;;;;;;;;;;;;;-142.75;73.89;76030.97;5032083;28;19913;-70
2022/05/22 10:33:37;;;;;;;;;;;;;;;-142.75;76.57;76023.09;5032648;28;20358;-70
2022/05/22 10:36:11;;;;;;;;;;;;;;;-142.75;73.00;76030.97;5032399;28;19921;-69
2022/05/22 10:39:03;;;;;;;;;;;;;;;-142.75;72.67;76052.63;5041091;28;19956;-69
2022/05/22 10:44:16;;;;;;;;;;;;;;;-142.75;72.47;76062.47;5051923;28;19966;-68
2022/05/22 10:46:49;;;;;;;;;;;;;;;-142.75;77.34;76019.16;5052389;28;19913;-69
2022/05/22 10:49:15;;;;;;;;;;;;;;;-142.75;67.12;76021.13;5051760;28;19920;-69
2022/05/22 10:51:40;;;;;;;;;;;;;;;-142.75;68.26;75958.16;5032655;28;19917;-69
2022/05/22 10:54:06;;;;;;;;;;;;;;;-142.75;66.12;75956.19;5032164;28;20015;-69
2022/05/22 10:56:32;;;;;;;;;;;;;;;-142.75;68.10;75942.41;5047966;28;19913;-69
2022/05/22 10:59:05;;;;;;;;;;;;;;;-142.75;69.81;75940.44;5042408;28;19966;-69
2022/05/22 11:01:34;;;;;;;;;;;;;;;-142.75;67.53;75922.72;5034508;28;20353;-69
2022/05/22 11:04:01;;;;;;;;;;;;;;;-142.75;72.05;75883.34;5033279;28;19928;-69
2022/05/22 11:06:27;;;;;;;;;;;;;;;-142.75;64.10;75924.69;5047224;28;19912;-69
2022/05/22 11:08:54;;;;;;;;;;;;;;;-142.75;67.66;75920.75;5051337;28;19921;-69
2022/05/22 11:11:23;;;;;;;;;;;;;;;-142.75;66.56;75895.16;5050352;28;20301;-69
2022/05/22 11:13:50;;;;;;;;;;;;;;;-142.75;67.95;75956.19;5049724;28;20282;-68
2022/05/22 11:16:26;;;;;;;;;;;;;;;-142.75;67.36;75897.13;5052028;28;19927;-69
2022/05/22 11:19:06;;;;;;;;;;;;;;;-142.75;64.66;75873.50;5043502;28;19948;-68
2022/05/22 11:21:54;;;;;;;;;;;;;;;-142.75;63.29;75851.88;5031594;28;19948;-69
2022/05/22 11:24:35;;;;;;;;;;;;;;;-142.75;62.35;75861.69;5015018;22;19959;-67
2022/05/22 11:27:03;;;;;;;;;;;;;;;-142.75;59.91;75899.09;5010016;28;19929;-68
2022/05/22 11:29:40;;;;;;;;;;;;;;;-142.75;60.72;75914.84;5012875;28;20357;-68
2022/05/22 11:32:15;;;;;;;;;;;;;;;-142.75;60.88;75867.59;5031431;28;19913;-68
2022/05/22 11:34:41;;;;;;;;;;;;;;;-142.75;60.08;75857.78;5011543;28;20330;-68
2022/05/22 11:37:12;;;;;;;;;;;;;;;-142.75;68.03;75798.72;5011468;28;19959;-68
2022/05/22 11:39:37;;;;;;;;;;;;;;;-142.75;60.35;75786.91;4992408;28;19913;-68
2022/05/22 11:42:12;;;;;;;;;;;;;;;-142.75;60.26;75820.38;4991716;28;19975;-67
2022/05/22 11:44:40;;;;;;;;;;;;;;;-142.75;61.79;75822.34;4991530;28;20288;-68
2022/05/22 11:47:11;;;;;;;;;;;;;;;-142.75;58.58;75877.44;4992653;28;20387;-67
2022/05/22 11:49:45;;;;;;;;;;;;;;;-142.75;57.66;75867.59;4991402;28;19920;-67
2022/05/22 11:56:00;;;;;;;;;;;;;;;-142.75;57.85;75816.44;4978538;28;20366;-69
2022/05/22 11:58:30;;;;;;;;;;;;;;;-142.75;58.36;75814.47;4991027;28;19920;-67
2022/05/22 12:01:12;;;;;;;;;;;;;;;-142.75;57.88;75798.72;5004791;28;19960;-67
2022/05/22 12:03:37;;;;;;;;;;;;;;;-142.75;59.29;75822.34;5010391;28;20337;-67
2022/05/22 12:06:21;;;;;;;;;;;;;;;-142.75;61.00;75828.25;5010289;28;19928;-67
2022/05/22 12:08:46;;;;;;;;;;;;;;;-142.75;62.80;75845.97;4992263;28;20458;-70
2022/05/22 12:11:14;;;;;;;;;;;;;;;-142.75;60.93;75820.38;4992367;28;19920;-67
2022/05/22 12:13:46;;;;;;;;;;;;;;;-142.75;63.14;75804.63;5009765;28;20413;-68
2022/05/22 12:16:27;;;;;;;;;;;;;;;-142.75;60.65;75775.09;5010138;28;20398;-68
2022/05/22 12:19:01;;;;;;;;;;;;;;;-142.75;60.88;75763.28;5010141;28;20011;-68
2022/05/22 12:21:37;;;;;;;;;;;;;;;-142.75;58.73;75794.78;5009791;28;19913;-67
2022/05/22 12:24:13;;;;;;;;;;;;;;;-142.75;59.79;75814.47;4992547;28;20327;-67
2022/05/22 12:26:39;;;;;;;;;;;;;;;-142.75;61.03;75790.84;4995649;28;20379;-67
2022/05/22 12:29:07;;;;;;;;;;;;;;;-142.75;60.72;75751.50;5003633;28;19968;-68
2022/05/22 12:31:45;;;;;;;;;;;;;;;-142.75;60.38;75753.47;5009636;28;19913;-67
2022/05/22 12:34:12;;;;;;;;;;;;;;;-142.75;62.46;75692.44;4992902;28;19917;-68
2022/05/22 12:36:40;;;;;;;;;;;;;;;-142.75;59.44;75714.09;4992050;28;19917;-66
2022/05/22 12:39:11;;;;;;;;;;;;;;;-142.75;62.49;75773.13;4989969;28;20374;-66
2022/05/22 12:41:45;;;;;;;;;;;;;;;-142.75;67.07;75800.69;4991500;28;20043;-68
2022/05/22 12:44:12;;;;;;;;;;;;;;;-142.75;63.51;75798.72;5009534;28;20479;-69
2022/05/22 12:46:39;;;;;;;;;;;;;;;-142.75;63.76;75818.41;4997870;28;19914;-68